Time;durP1;ratioP1;P1;durP2;ratioP2;P2;SDS_P1;SDS_P2;PMS_P1;PMS_P2;Temp;Humidity;BMP_temperature;BMP_pressure;BME280_temperature;BME280_humidity;BME280_pressure;Samples;Min_cycle;Max_cycle;Signal;HPM_P1;HPM_P2
2020/12/12 00:04:00;;;;;;;20.27;16.40;;;;;;;5.30;82.34;98022.28;9773750;28;21267;-74
2020/12/12 00:09:03;;;;;;;20.10;17.15;;;;;;;5.28;82.15;98016.34;9737767;28;23165;-74
2020/12/12 00:14:04;;;;;;;20.23;16.55;;;;;;;5.25;82.19;98019.22;9743454;28;20058;-74
2020/12/12 00:19:05;;;;;;;22.95;16.92;;;;;;;5.32;82.23;98025.59;9732914;28;20133;-75
2020/12/12 00:24:06;;;;;;;21.27;16.83;;;;;;;5.30;81.86;98017.00;9729440;28;20141;-74
2020/12/12 00:29:08;;;;;;;20.25;16.17;;;;;;;5.34;81.93;98022.00;9752149;28;21964;-74
2020/12/12 00:34:09;;;;;;;20.35;17.58;;;;;;;5.41;81.61;98025.72;9749850;28;20583;-74
2020/12/12 00:39:11;;;;;;;22.00;17.08;;;;;;;5.36;81.71;98026.16;9728547;28;20188;-74
2020/12/12 00:44:12;;;;;;;24.50;16.55;;;;;;;5.38;82.15;98028.66;9729972;28;20690;-74
2020/12/12 00:49:14;;;;;;;21.60;16.80;;;;;;;5.42;81.82;98030.00;9726775;28;20058;-74
2020/12/12 00:54:15;;;;;;;19.65;15.95;;;;;;;5.39;82.38;98030.28;9722138;28;20170;-72
2020/12/12 00:59:18;;;;;;;18.17;15.27;;;;;;;5.31;82.56;98029.22;9721639;28;20074;-74
2020/12/12 01:04:19;;;;;;;19.92;15.00;;;;;;;5.28;82.92;98024.25;9772866;28;20399;-73
2020/12/12 01:09:21;;;;;;;18.08;14.80;;;;;;;5.38;82.39;98031.28;9764470;28;20590;-73
2020/12/12 01:14:22;;;;;;;18.48;16.42;;;;;;;5.36;82.49;98025.31;9791079;28;20055;-73
2020/12/12 01:19:23;;;;;;;18.13;14.85;;;;;;;5.41;82.63;98029.19;9738628;28;20054;-73
2020/12/12 01:24:25;;;;;;;19.30;15.95;;;;;;;5.29;82.40;98028.53;9724586;28;20132;-73
2020/12/12 01:29:26;;;;;;;17.23;14.50;;;;;;;5.36;82.83;98033.22;9731950;28;20121;-73
2020/12/12 01:34:27;;;;;;;18.20;15.90;;;;;;;5.41;82.40;98038.91;9737809;28;20690;-74
2020/12/12 01:39:29;;;;;;;17.83;15.00;;;;;;;5.42;82.24;98041.41;9767034;28;22610;-73
2020/12/12 01:44:30;;;;;;;18.10;15.32;;;;;;;5.39;82.43;98035.56;9774869;28;20046;-73
2020/12/12 01:49:31;;;;;;;18.02;15.43;;;;;;;5.37;82.46;98037.53;9742664;28;20054;-74
2020/12/12 01:54:33;;;;;;;19.08;15.82;;;;;;;5.39;83.03;98041.69;9725521;28;20110;-74
2020/12/12 01:59:34;;;;;;;18.90;15.25;;;;;;;5.45;82.37;98038.47;9735058;28;20058;-74
2020/12/12 02:04:37;;;;;;;19.65;14.70;;;;;;;5.47;82.42;98043.59;9741145;28;20145;-73
2020/12/12 02:09:39;;;;;;;17.98;15.35;;;;;;;5.43;82.43;98044.88;9736766;28;20058;-74
2020/12/12 02:14:41;;;;;;;18.38;16.40;;;;;;;5.45;82.54;98050.81;9731861;28;20555;-74
2020/12/12 02:19:42;;;;;;;19.20;15.13;;;;;;;5.46;81.82;98053.34;9719821;28;20065;-73
2020/12/12 02:24:44;;;;;;;19.02;16.33;;;;;;;5.37;82.29;98046.28;9757767;28;20167;-73
2020/12/12 02:29:48;;;;;;;17.60;15.00;;;;;;;5.43;82.75;98047.50;9744514;28;20168;-74
2020/12/12 02:34:49;;;;;;;16.90;15.10;;;;;;;5.45;82.42;98045.53;9742607;28;20058;-74
2020/12/12 02:39:50;;;;;;;19.52;15.05;;;;;;;5.52;82.36;98036.06;9713843;28;22632;-74
2020/12/12 02:44:53;;;;;;;18.02;14.68;;;;;;;5.55;82.16;98030.50;9739868;28;20054;-74
2020/12/12 02:50:04;;;;;;;18.88;15.20;;;;;;;5.55;81.89;98043.69;9781681;28;20100;-75
2020/12/12 02:55:07;;;;;;;18.40;16.20;;;;;;;5.51;82.12;98033.59;9748021;28;20444;-74
2020/12/12 03:00:12;;;;;;;17.23;15.40;;;;;;;5.56;81.78;98034.00;9740704;28;20163;-74
2020/12/12 03:05:14;;;;;;;20.58;16.30;;;;;;;5.53;81.88;98040.38;9710714;28;20654;-75
2020/12/12 03:10:15;;;;;;;17.98;15.60;;;;;;;5.52;82.11;98036.06;9776918;28;20066;-75
2020/12/12 03:15:16;;;;;;;18.92;15.50;;;;;;;5.57;81.79;98044.41;9757126;28;20118;-74
2020/12/12 03:20:17;;;;;;;19.70;15.75;;;;;;;5.60;81.60;98049.38;9775585;28;21939;-75
2020/12/12 03:25:19;;;;;;;17.50;14.82;;;;;;;5.58;81.50;98035.50;9730098;28;20070;-74
2020/12/12 03:30:21;;;;;;;18.63;15.57;;;;;;;5.57;81.51;98049.69;9764041;28;20054;-74
2020/12/12 03:35:22;;;;;;;20.00;17.33;;;;;;;5.55;81.26;98041.06;9715246;28;20050;-74
2020/12/12 03:40:24;;;;;;;18.23;14.82;;;;;;;5.57;81.31;98047.03;9709654;28;20165;-75
2020/12/12 03:45:25;;;;;;;17.85;15.82;;;;;;;5.64;81.03;98049.91;9713537;28;20054;-74
2020/12/12 03:50:29;;;;;;;18.05;15.00;;;;;;;5.59;81.61;98054.81;9747084;28;22146;-74
2020/12/12 03:55:30;;;;;;;17.65;15.02;;;;;;;5.65;81.67;98057.69;9802658;28;20062;-74
2020/12/12 04:00:31;;;;;;;16.98;15.07;;;;;;;5.64;81.17;98049.91;9734654;28;20133;-75
2020/12/12 04:05:33;;;;;;;18.48;16.45;;;;;;;5.63;81.44;98053.53;9733445;28;20054;-74
2020/12/12 04:10:34;;;;;;;17.98;15.27;;;;;;;5.60;81.49;98043.25;9733233;28;20069;-74
2020/12/12 04:15:36;;;;;;;18.08;15.38;;;;;;;5.61;81.70;98050.22;9722850;28;20069;-73
2020/12/12 04:20:37;;;;;;;18.40;16.13;;;;;;;5.59;81.83;98054.81;9743517;28;20335;-73
2020/12/12 04:25:39;;;;;;;17.77;15.02;;;;;;;5.69;81.57;98057.41;9730678;28;21864;-72
2020/12/12 04:30:40;;;;;;;17.85;14.77;;;;;;;5.73;81.70;98058.78;9736798;28;20069;-73
2020/12/12 04:35:43;;;;;;;19.83;16.52;;;;;;;5.66;81.21;98059.34;9734392;28;22332;-73
2020/12/12 04:40:44;;;;;;;17.23;15.00;;;;;;;5.64;81.45;98061.31;9750280;28;20058;-73
2020/12/12 04:45:47;;;;;;;20.23;16.42;;;;;;;5.58;81.32;98061.88;9721062;28;20149;-74
2020/12/12 04:50:49;;;;;;;17.15;15.23;;;;;;;5.64;81.31;98066.59;9767118;28;20051;-73
2020/12/12 04:55:55;;;;;;;18.90;15.50;;;;;;;5.70;81.04;98072.25;9737111;28;25084;-73
2020/12/12 05:00:57;;;;;;;18.42;15.65;;;;;;;5.68;80.63;98079.50;9716556;28;20057;-73
2020/12/12 05:05:58;;;;;;;16.67;14.57;;;;;;;5.61;80.63;98072.16;9736808;28;20148;-73
2020/12/12 05:11:02;;;;;;;17.75;15.25;;;;;;;5.63;80.69;98080.78;9735370;28;25790;-73
2020/12/12 05:16:04;;;;;;;19.15;15.38;;;;;;;5.68;80.76;98084.78;9732399;28;20058;-74
2020/12/12 05:21:06;;;;;;;18.90;16.13;;;;;;;5.71;80.21;98082.69;9962066;28;20063;-74
2020/12/12 05:26:09;;;;;;;18.02;15.95;;;;;;;5.78;80.41;98085.56;9732305;28;20138;-74
2020/12/12 05:31:11;;;;;;;18.05;14.75;;;;;;;5.78;80.47;98094.31;9742010;28;22666;-72
2020/12/12 05:36:12;;;;;;;18.40;14.65;;;;;;;5.74;79.87;98087.66;9714702;28;20201;-74
2020/12/12 05:41:16;;;;;;;21.35;17.15;;;;;;;5.69;80.04;98094.34;9748355;28;20062;-74
2020/12/12 05:46:20;;;;;;;18.52;15.07;;;;;;;5.70;80.33;98096.03;9767441;28;20054;-76
2020/12/12 05:51:21;;;;;;;27.70;21.53;;;;;;;5.75;80.44;98099.03;9783527;28;20061;-73
2020/12/12 05:56:24;;;;;;;21.08;18.35;;;;;;;5.74;80.17;98102.69;9741506;28;21600;-76
2020/12/12 06:01:28;;;;;;;21.15;17.38;;;;;;;5.75;80.82;98109.59;9748651;28;21411;-70
2020/12/12 06:06:30;;;;;;;23.45;20.05;;;;;;;5.73;80.56;98111.56;9754794;28;20732;-72
2020/12/12 06:11:37;;;;;;;20.48;17.85;;;;;;;5.81;80.72;98116.94;9747637;28;20071;-72
2020/12/12 06:16:39;;;;;;;20.88;16.45;;;;;;;5.88;80.38;98117.22;9782846;28;20483;-71
2020/12/12 06:21:46;;;;;;;20.55;16.90;;;;;;;5.84;79.71;98121.97;9753566;28;20050;-71
2020/12/12 06:27:05;;;;;;;18.13;15.60;;;;;;;5.84;80.04;98119.31;9784305;28;20062;-71
2020/12/12 06:32:13;;;;;;;18.70;15.38;;;;;;;5.86;79.72;98124.44;9780568;28;20049;-74
2020/12/12 06:37:34;;;;;;;16.75;15.00;;;;;;;5.84;80.29;98137.81;9790697;28;20390;-74
2020/12/12 06:42:46;;;;;;;19.00;15.27;;;;;;;5.85;80.04;98131.53;9746526;28;20062;-72
2020/12/12 06:47:53;;;;;;;16.67;14.68;;;;;;;5.88;80.02;98141.78;9740265;28;20790;-74
2020/12/12 06:52:54;;;;;;;17.27;14.98;;;;;;;5.91;79.82;98154.69;9724043;28;20042;-72
2020/12/12 06:57:56;;;;;;;15.75;14.15;;;;;;;5.91;79.57;98146.78;9742857;28;20117;-71
2020/12/12 07:03:03;;;;;;;16.05;14.18;;;;;;;5.98;79.49;98158.47;9701289;28;20050;-72
2020/12/12 07:08:06;;;;;;;15.05;13.40;;;;;;;5.97;79.21;98158.59;9729128;28;20421;-71
2020/12/12 07:13:09;;;;;;;13.52;11.93;;;;;;;5.98;79.48;98176.13;9738922;28;20061;-71
2020/12/12 07:18:12;;;;;;;13.93;12.50;;;;;;;5.99;78.90;98178.63;9747398;28;20058;-74
2020/12/12 07:23:14;;;;;;;13.43;12.00;;;;;;;6.00;79.10;98182.94;9755588;28;20958;-74
2020/12/12 07:28:16;;;;;;;13.75;12.30;;;;;;;5.98;78.94;98184.88;9744282;28;20112;-74
2020/12/12 07:33:17;;;;;;;14.05;11.23;;;;;;;6.05;79.43;98197.50;9795390;28;20066;-73
2020/12/12 07:38:18;;;;;;;13.73;11.25;;;;;;;6.00;78.81;98198.78;9730875;28;20085;-73
2020/12/12 07:43:20;;;;;;;13.18;11.88;;;;;;;6.01;78.70;98204.88;9680768;28;23159;-73
2020/12/12 07:48:23;;;;;;;11.85;10.55;;;;;;;6.04;78.78;98211.69;9762712;28;20061;-74
2020/12/12 07:53:28;;;;;;;12.48;11.18;;;;;;;6.04;78.74;98219.63;9724720;28;20118;-72
2020/12/12 07:58:32;;;;;;;12.95;11.65;;;;;;;6.06;78.57;98217.66;9726135;28;20055;-74
2020/12/12 08:03:43;;;;;;;14.73;11.77;;;;;;;6.08;79.10;98220.97;9746562;28;20058;-73
2020/12/12 08:08:53;;;;;;;12.38;11.18;;;;;;;6.09;79.54;98233.22;9726844;28;20074;-74
2020/12/12 08:13:54;;;;;;;13.35;11.95;;;;;;;6.10;79.11;98229.59;9735072;28;20088;-73
2020/12/12 08:19:05;;;;;;;16.00;12.95;;;;;;;6.12;79.23;98248.78;9724514;28;20622;-72
2020/12/12 08:24:08;;;;;;;13.32;11.90;;;;;;;6.12;79.17;98254.88;9733916;28;20054;-73
2020/12/12 08:29:09;;;;;;;13.20;11.82;;;;;;;6.09;79.50;98259.63;9741120;28;20054;-73
2020/12/12 08:34:20;;;;;;;16.27;13.80;;;;;;;6.11;79.80;98265.59;9743144;28;22062;-74
2020/12/12 08:39:25;;;;;;;14.82;12.88;;;;;;;6.14;79.22;98273.22;9761869;28;20162;-74
2020/12/12 08:44:26;;;;;;;16.52;13.00;;;;;;;6.18;79.16;98290.47;9776105;28;24329;-73
2020/12/12 08:49:55;;;;;;;16.48;13.85;;;;;;;6.14;78.81;98289.06;9781851;28;20070;-73
2020/12/12 08:55:00;;;;;;;14.35;12.77;;;;;;;6.14;78.95;98299.66;9725876;28;24199;-74
2020/12/12 09:00:05;;;;;;;15.68;14.15;;;;;;;6.08;78.87;98305.50;9740027;28;20185;-73
2020/12/12 09:05:11;;;;;;;16.42;14.70;;;;;;;6.08;79.37;98301.06;9761644;28;20074;-72
2020/12/12 09:10:14;;;;;;;15.07;13.48;;;;;;;6.15;79.16;98318.00;9806077;28;20054;-74
2020/12/12 09:15:16;;;;;;;17.27;15.35;;;;;;;6.14;78.77;98319.00;9820446;28;20122;-74
2020/12/12 09:20:17;;;;;;;15.50;13.82;;;;;;;6.13;78.91;98319.13;9802446;28;24691;-73
2020/12/12 09:25:18;;;;;;;16.65;13.73;;;;;;;6.17;78.92;98333.69;9809383;28;20053;-73
2020/12/12 09:30:19;;;;;;;16.60;13.20;;;;;;;6.20;78.79;98336.09;9811004;28;20145;-73
2020/12/12 09:35:21;;;;;;;15.30;13.70;;;;;;;6.21;79.08;98340.38;9799662;28;20054;-74
2020/12/12 09:40:22;;;;;;;15.98;14.27;;;;;;;6.28;78.72;98351.22;9851945;28;20054;-73
2020/12/12 09:45:24;;;;;;;17.52;14.65;;;;;;;6.31;78.71;98357.03;9837317;28;22756;-74
2020/12/12 09:50:33;;;;;;;15.85;14.15;;;;;;;6.32;78.77;98356.06;9845738;28;20069;-74
2020/12/12 09:55:37;;;;;;;18.02;16.08;;;;;;;6.35;77.96;98355.78;9787728;28;20124;-72
2020/12/12 10:00:40;;;;;;;16.58;14.48;;;;;;;6.42;77.95;98363.16;9778140;28;20059;-74
2020/12/12 10:05:43;;;;;;;17.48;14.50;;;;;;;6.53;77.69;98369.09;9810802;28;20050;-75
2020/12/12 10:10:44;;;;;;;17.88;15.98;;;;;;;6.45;77.31;98378.72;9791428;28;20055;-73
2020/12/12 10:15:49;;;;;;;18.85;15.43;;;;;;;6.54;78.05;98377.84;9790141;28;24672;-74
2020/12/12 10:20:50;;;;;;;18.40;16.50;;;;;;;6.54;77.75;98373.41;9814774;28;21835;-73
2020/12/12 10:25:52;;;;;;;17.30;15.43;;;;;;;6.59;77.29;98380.91;9867647;28;20282;-73
2020/12/12 10:30:53;;;;;;;16.63;13.88;;;;;;;6.54;77.07;98378.69;9813208;28;20081;-73
2020/12/12 10:35:54;;;;;;;17.40;15.52;;;;;;;6.47;76.71;98379.41;9823498;28;20124;-73
2020/12/12 10:41:10;;;;;;;18.10;16.08;;;;;;;6.50;76.74;98384.41;9814053;28;20085;-73
2020/12/12 10:46:11;;;;;;;18.10;16.10;;;;;;;6.51;76.52;98383.44;9804116;28;21053;-74
2020/12/12 10:51:16;;;;;;;19.42;16.65;;;;;;;6.58;76.51;98394.28;9829462;28;20612;-73
2020/12/12 10:56:17;;;;;;;18.85;16.85;;;;;;;6.52;77.04;98387.75;9810036;28;20563;-73
2020/12/12 11:01:18;;;;;;;18.38;16.23;;;;;;;6.70;76.90;98393.94;9816866;28;20117;-75
2020/12/12 11:06:19;;;;;;;16.88;15.07;;;;;;;6.70;76.04;98380.72;9794108;28;20050;-76
2020/12/12 11:11:21;;;;;;;17.08;14.80;;;;;;;6.75;76.00;98393.50;9781468;28;21645;-74
2020/12/12 11:16:28;;;;;;;18.55;16.52;;;;;;;6.80;75.97;98403.66;9829540;28;20061;-75
2020/12/12 11:21:29;;;;;;;19.90;16.13;;;;;;;6.76;75.75;98394.34;9804559;28;20050;-74
2020/12/12 11:26:30;;;;;;;18.83;16.83;;;;;;;6.79;75.90;98399.34;9798890;28;20081;-75
2020/12/12 11:31:31;;;;;;;19.17;16.63;;;;;;;6.82;76.11;98409.66;9821369;28;20464;-74
2020/12/12 11:42:07;;;;;;;20.17;16.50;;;;;;;6.85;76.05;98414.63;9836140;28;20081;-74
2020/12/12 11:46:55;;;;;;;18.65;16.65;;;;;;;6.80;76.43;98406.28;9832256;28;20055;-75
2020/12/12 11:51:57;;;;;;;21.27;16.27;;;;;;;6.88;76.42;98419.63;9818008;28;20075;-74
2020/12/12 11:56:58;;;;;;;20.75;17.92;;;;;;;6.93;76.75;98430.59;9803085;28;20066;-75
2020/12/12 12:01:59;;;;;;;19.30;15.35;;;;;;;6.89;75.82;98423.94;9810782;28;20066;-73
2020/12/12 12:07:01;;;;;;;18.20;15.63;;;;;;;6.91;75.64;98429.94;9780605;28;20143;-76
2020/12/12 12:12:03;;;;;;;16.98;14.60;;;;;;;6.96;75.57;98446.19;9804848;28;20065;-74
2020/12/12 12:17:04;;;;;;;17.40;14.70;;;;;;;6.95;75.44;98441.03;9807878;28;20062;-74
2020/12/12 12:22:06;;;;;;;17.65;14.68;;;;;;;6.99;75.92;98453.00;9817685;28;20577;-73
2020/12/12 12:27:07;;;;;;;17.23;15.07;;;;;;;6.92;75.99;98458.06;9811225;28;20054;-73
2020/12/12 12:32:09;;;;;;;19.20;15.35;;;;;;;6.93;76.16;98465.00;9840284;28;20085;-74
2020/12/12 12:37:18;;;;;;;17.00;14.95;;;;;;;6.92;76.57;98458.06;9816863;28;21422;-74
2020/12/12 12:42:21;;;;;;;29.13;26.42;;;;;;;7.00;76.63;98465.25;9798461;28;20505;-73
2020/12/12 12:47:22;;;;;;;19.10;15.93;;;;;;;7.04;76.28;98478.06;9808215;28;20469;-72
2020/12/12 12:52:24;;;;;;;21.15;18.33;;;;;;;7.02;76.05;98468.59;9811602;28;20054;-76
2020/12/12 12:57:25;;;;;;;21.00;16.13;;;;;;;7.13;76.48;98483.44;9803326;28;20089;-75
2020/12/12 13:02:26;;;;;;;19.98;16.58;;;;;;;7.18;76.59;98481.22;9828351;28;20104;-75
2020/12/12 13:07:27;;;;;;;21.08;17.20;;;;;;;7.17;77.07;98490.94;9824891;28;20050;-75
2020/12/12 13:12:29;;;;;;;21.15;18.45;;;;;;;7.22;77.12;98495.81;9813612;28;22447;-75
2020/12/12 13:17:30;;;;;;;23.83;17.95;;;;;;;7.25;77.07;98501.66;9843437;28;21839;-75
2020/12/12 13:22:31;;;;;;;23.63;19.27;;;;;;;7.23;77.30;98508.06;9821512;28;20054;-75
2020/12/12 13:27:33;;;;;;;24.17;19.63;;;;;;;7.25;77.43;98506.94;9920509;28;20051;-75
2020/12/12 13:32:34;;;;;;;22.42;19.95;;;;;;;7.24;77.78;98504.44;9890359;28;20084;-75
2020/12/12 13:37:35;;;;;;;20.88;18.65;;;;;;;7.24;78.14;98515.03;9830924;28;20051;-76
2020/12/12 13:42:37;;;;;;;22.00;18.17;;;;;;;7.25;78.21;98522.84;9803165;28;20054;-75
2020/12/12 13:47:38;;;;;;;22.42;18.00;;;;;;;7.21;78.39;98532.03;9816363;28;20168;-74
2020/12/12 13:52:40;;;;;;;20.98;17.65;;;;;;;7.20;78.95;98527.72;9810988;28;20504;-76
2020/12/12 13:57:41;;;;;;;21.92;17.30;;;;;;;7.19;78.60;98527.84;9821277;28;20062;-76
2020/12/12 14:02:42;;;;;;;20.52;17.27;;;;;;;7.22;79.28;98548.72;9822882;28;20094;-75
2020/12/12 14:07:45;;;;;;;22.63;18.02;;;;;;;7.25;79.40;98561.69;9815027;28;20104;-78
2020/12/12 14:23:28;;;;;;;20.23;17.15;;;;;;;7.04;80.12;98572.44;9791059;28;20054;-76
2020/12/12 14:28:33;;;;;;;19.73;17.17;;;;;;;7.07;79.94;98591.53;9813320;28;20125;-75
2020/12/12 14:33:34;;;;;;;;;;;;;;;7.07;80.38;98607.41;9787519;28;20054;-73
2020/12/12 14:38:35;;;;;;;17.98;14.93;;;;;;;7.05;79.81;98606.69;9849134;28;20033;-72
2020/12/12 14:43:36;;;;;;;21.20;17.60;;;;;;;7.08;80.19;98616.19;9841055;28;20129;-73
2020/12/12 14:48:39;;;;;;;18.80;16.40;;;;;;;7.06;80.60;98631.38;9836270;28;20977;-74
2020/12/12 14:53:41;;;;;;;18.83;16.02;;;;;;;7.09;80.85;98644.31;9811136;28;20084;-73
2020/12/12 14:58:42;;;;;;;20.45;17.25;;;;;;;7.07;80.38;98649.75;9809502;28;20188;-75
2020/12/12 15:03:43;;;;;;;20.05;17.15;;;;;;;7.05;81.15;98664.91;9801421;28;20124;-74
2020/12/12 15:08:44;;;;;;;21.77;17.42;;;;;;;7.12;81.91;98670.50;9803312;28;20527;-75
2020/12/12 15:13:46;;;;;;;20.60;17.63;;;;;;;7.16;80.98;98671.03;9807247;28;20066;-74
2020/12/12 15:18:47;;;;;;;20.30;18.10;;;;;;;7.13;80.99;98679.25;9805965;28;20058;-75
2020/12/12 15:23:49;;;;;;;18.92;16.55;;;;;;;7.16;80.97;98692.22;9821039;28;20058;-73
2020/12/12 15:28:50;;;;;;;18.77;16.40;;;;;;;7.23;81.48;98702.09;9823181;28;20054;-75
2020/12/12 15:33:51;;;;;;;22.05;17.58;;;;;;;7.23;80.78;98690.69;9800855;28;22234;-75
2020/12/12 15:38:53;;;;;;;19.17;17.15;;;;;;;7.20;80.96;98698.91;9815416;28;20108;-76
2020/12/12 15:43:54;;;;;;;20.48;18.05;;;;;;;7.20;80.64;98702.38;9818632;28;20158;-74
2020/12/12 15:48:59;;;;;;;26.70;21.80;;;;;;;7.10;81.64;98701.56;9816260;28;20154;-75
2020/12/12 15:54:01;;;;;;;27.65;24.52;;;;;;;7.11;82.29;98711.16;9767862;28;20058;-74
2020/12/12 15:59:03;;;;;;;24.25;20.60;;;;;;;7.12;82.14;98717.31;9786273;28;20460;-74
2020/12/12 16:04:05;;;;;;;25.70;22.90;;;;;;;7.13;81.54;98732.19;9809426;28;20105;-74
2020/12/12 16:09:07;;;;;;;22.65;20.17;;;;;;;7.13;81.81;98733.03;9820438;28;20054;-75
2020/12/12 16:14:08;;;;;;;26.95;23.85;;;;;;;7.12;81.89;98743.75;9827214;28;20425;-71
2020/12/12 16:19:09;;;;;;;26.60;23.70;;;;;;;7.11;81.76;98748.19;9823635;28;20062;-72
2020/12/12 16:24:11;;;;;;;20.08;17.98;;;;;;;7.12;81.87;98757.00;9809073;28;20062;-72
2020/12/12 16:29:12;;;;;;;21.10;18.80;;;;;;;7.06;81.77;98767.13;9818871;28;20085;-73
2020/12/12 16:34:13;;;;;;;22.33;19.92;;;;;;;7.02;81.71;98767.56;9810247;28;25629;-72
2020/12/12 16:39:18;;;;;;;22.60;20.05;;;;;;;7.04;82.00;98779.69;9786204;28;20148;-75
2020/12/12 16:44:19;;;;;;;19.85;17.67;;;;;;;7.04;81.78;98773.53;9817663;28;20058;-75
2020/12/12 16:49:21;;;;;;;28.85;25.55;;;;;;;7.01;82.28;98774.66;9804141;28;20081;-75
2020/12/12 16:54:22;;;;;;;24.38;21.15;;;;;;;7.05;81.90;98788.44;9775852;28;20077;-74
2020/12/12 16:59:24;;;;;;;23.88;20.15;;;;;;;7.06;81.89;98803.34;9811275;28;20054;-74
2020/12/12 17:04:25;;;;;;;85.57;76.38;;;;;;;7.03;82.05;98799.16;9845558;28;20062;-73
2020/12/12 17:09:26;;;;;;;30.08;24.85;;;;;;;7.04;82.03;98811.44;9787906;28;20182;-74
2020/12/12 17:14:29;;;;;;;60.03;51.03;;;;;;;7.05;81.98;98818.38;9811358;28;20383;-73
2020/12/12 17:19:30;;;;;;;21.08;18.33;;;;;;;7.07;81.60;98821.75;9798285;28;20175;-74
2020/12/12 17:24:33;;;;;;;24.40;19.25;;;;;;;7.04;81.83;98822.00;9821260;28;20058;-74
2020/12/12 17:29:35;;;;;;;22.85;18.52;;;;;;;7.06;81.78;98825.34;9800000;28;20054;-73
2020/12/12 17:34:37;;;;;;;25.50;18.98;;;;;;;7.06;81.71;98827.16;9814365;28;20193;-74
2020/12/12 17:39:38;;;;;;;22.85;18.23;;;;;;;7.07;81.77;98837.63;9799464;28;20555;-72
2020/12/12 17:44:40;;;;;;;21.67;18.70;;;;;;;7.08;81.75;98844.56;9804983;28;20151;-75
2020/12/12 17:49:41;;;;;;;24.20;18.83;;;;;;;7.10;81.34;98848.88;9814347;28;20080;-74
2020/12/12 17:54:42;;;;;;;43.10;32.38;;;;;;;7.10;81.22;98856.81;9817704;28;20949;-74
2020/12/12 17:59:44;;;;;;;22.88;18.35;;;;;;;7.10;81.01;98867.41;9779985;28;20207;-72
2020/12/12 18:04:45;;;;;;;23.73;18.65;;;;;;;7.10;80.71;98872.69;9795894;28;20053;-74
2020/12/12 18:09:46;;;;;;;25.25;19.88;;;;;;;7.11;80.64;98884.97;9804841;28;20370;-73
2020/12/12 18:14:47;;;;;;;25.30;18.63;;;;;;;7.08;80.87;98876.31;9818422;28;20078;-72
2020/12/12 18:19:49;;;;;;;23.05;19.33;;;;;;;7.10;80.62;98886.78;9801150;28;20101;-76
2020/12/12 18:24:51;;;;;;;26.10;19.83;;;;;;;7.10;80.76;98881.50;9806812;28;20080;-75
2020/12/12 18:29:52;;;;;;;23.33;18.95;;;;;;;7.08;80.59;98888.72;9805489;28;20049;-74
2020/12/12 18:34:53;;;;;;;26.10;20.73;;;;;;;7.05;81.25;98892.47;9794720;28;20062;-75
2020/12/12 18:39:54;;;;;;;29.77;20.60;;;;;;;6.93;81.42;98875.03;9807148;28;20425;-75
2020/12/12 18:44:55;;;;;;;33.55;22.40;;;;;;;7.05;81.10;98887.16;9793777;28;20104;-78
2020/12/12 18:49:57;;;;;;;26.08;19.50;;;;;;;6.99;81.01;98882.41;9803692;28;20059;-77
2020/12/12 18:54:58;;;;;;;30.65;21.92;;;;;;;6.96;81.81;98898.56;9790233;28;20165;-75
2020/12/12 19:00:00;;;;;;;25.15;20.70;;;;;;;6.98;81.23;98901.94;9795069;28;22956;-77
2020/12/12 19:05:06;;;;;;;31.80;24.08;;;;;;;6.98;81.60;98909.00;9826613;28;20093;-77
2020/12/12 19:10:10;;;;;;;32.03;24.05;;;;;;;6.99;81.61;98924.75;9772278;28;20065;-74
2020/12/12 19:15:11;;;;;;;34.90;24.37;;;;;;;6.98;81.52;98927.53;9811745;28;22053;-72
2020/12/12 19:20:13;;;;;;;35.22;30.67;;;;;;;7.02;81.19;98935.06;9784556;28;20117;-75
2020/12/12 19:25:14;;;;;;;28.17;22.73;;;;;;;7.04;81.01;98933.13;9817064;28;20050;-73
2020/12/12 19:30:15;;;;;;;30.27;22.40;;;;;;;7.05;81.20;98949.84;9816290;28;20429;-72
2020/12/12 19:35:18;;;;;;;27.98;21.63;;;;;;;7.06;81.34;98954.19;9798404;28;20058;-73
2020/12/12 19:40:20;;;;;;;30.20;22.55;;;;;;;7.10;81.77;98957.38;9814542;28;20659;-74
2020/12/12 19:45:21;;;;;;;31.83;22.98;;;;;;;7.04;82.22;98964.91;9784468;28;20062;-73
2020/12/12 19:50:22;;;;;;;33.88;23.83;;;;;;;7.03;82.02;98963.22;9786024;28;20577;-73
2020/12/12 19:55:23;;;;;;;35.47;26.17;;;;;;;7.02;82.41;98968.63;9792002;28;20093;-73
2020/12/12 20:00:25;;;;;;;31.33;24.20;;;;;;;7.01;82.02;98981.03;9815046;28;23305;-73
2020/12/12 20:05:29;;;;;;;34.28;25.48;;;;;;;7.01;82.44;98973.09;9799535;28;20590;-73
2020/12/12 20:10:30;;;;;;;32.22;23.00;;;;;;;7.07;82.47;98988.44;9780585;28;20058;-74
2020/12/12 20:15:35;;;;;;;33.45;24.48;;;;;;;7.07;82.37;98985.78;9810159;28;22675;-73
2020/12/12 20:20:37;;;;;;;36.92;26.02;;;;;;;7.12;82.19;98987.22;9818272;28;20142;-74
2020/12/12 20:25:38;;;;;;;37.90;27.50;;;;;;;7.14;82.22;98995.84;9822396;28;21878;-75
2020/12/12 20:30:39;;;;;;;38.83;25.02;;;;;;;7.07;82.68;98998.16;9828133;28;20069;-74
2020/12/12 20:35:41;;;;;;;35.45;25.33;;;;;;;7.00;82.70;98989.09;9835951;28;20524;-73
2020/12/12 20:40:42;;;;;;;37.95;26.63;;;;;;;7.03;82.75;99005.53;9840774;28;20068;-72
2020/12/12 20:45:45;;;;;;;39.40;28.77;;;;;;;7.05;82.88;99011.53;9812914;28;20049;-74
2020/12/12 20:50:47;;;;;;;38.80;27.77;;;;;;;7.08;82.83;99011.25;9808757;28;20061;-73
2020/12/12 20:55:48;;;;;;;38.00;27.02;;;;;;;7.06;82.67;99013.22;9804707;28;21898;-72
2020/12/12 21:00:49;;;;;;;39.53;27.08;;;;;;;7.08;82.77;99013.09;9816924;28;20050;-73
2020/12/12 21:05:51;;;;;;;40.42;26.23;;;;;;;7.09;82.92;99009.47;9807757;28;20073;-73
2020/12/12 21:10:52;;;;;;;42.08;26.33;;;;;;;7.07;82.79;99014.91;9785301;28;20797;-74
2020/12/12 21:15:54;;;;;;;36.97;26.08;;;;;;;7.07;82.87;99035.22;9986193;23;20117;-76
2020/12/12 21:20:55;;;;;;;37.22;27.08;;;;;;;7.13;82.82;99032.06;9729410;28;20454;-74
2020/12/12 21:26:04;;;;;;;42.78;29.98;;;;;;;7.13;82.98;99047.09;9736403;28;20082;-75
2020/12/12 21:31:06;;;;;;;37.70;27.00;;;;;;;7.10;83.24;99036.78;9740297;28;21147;-77
2020/12/12 21:36:08;;;;;;;40.33;26.70;;;;;;;7.14;83.00;99049.59;9723679;28;20061;-75
2020/12/12 21:41:09;;;;;;;40.53;25.45;;;;;;;7.19;82.74;99052.72;9732859;28;20062;-73
2020/12/12 21:46:10;;;;;;;35.28;26.45;;;;;;;7.23;82.63;99071.81;9743695;28;20065;-75
2020/12/12 21:51:12;;;;;;;39.20;27.75;;;;;;;7.22;82.62;99075.41;9723882;28;20070;-74
2020/12/12 21:56:13;;;;;;;43.47;27.02;;;;;;;7.18;82.79;99082.78;9726259;28;20194;-75
2020/12/12 22:01:18;;;;;;;41.67;28.58;;;;;;;7.14;82.66;99075.25;9750972;28;20102;-75
2020/12/12 22:06:30;;;;;;;;;;;;;;;7.24;82.97;99097.31;9730693;28;20133;-74
2020/12/12 22:11:33;;;;;;;38.05;26.90;;;;;;;7.21;82.97;99092.28;9743685;28;21537;-78
2020/12/12 22:16:35;;;;;;;37.90;27.35;;;;;;;7.20;82.56;99093.25;9732874;28;20063;-75
2020/12/12 22:21:36;;;;;;;37.60;26.23;;;;;;;7.24;82.68;99092.03;9741374;28;20055;-76
2020/12/12 22:26:37;;;;;;;37.10;25.63;;;;;;;7.29;82.73;99108.34;9738367;28;20063;-75
2020/12/12 22:31:42;;;;;;;41.20;29.90;;;;;;;7.25;82.90;99101.63;9738701;28;22344;-74
2020/12/12 22:36:43;;;;;;;39.72;26.92;;;;;;;7.35;82.64;99113.09;9747005;28;20201;-73
2020/12/12 22:41:45;;;;;;;35.80;25.90;;;;;;;7.32;82.50;99113.38;9722361;28;20139;-72
2020/12/12 22:46:46;;;;;;;35.40;25.48;;;;;;;7.42;82.51;99122.22;9736279;28;20051;-71
2020/12/12 22:51:57;;;;;;;30.38;22.98;;;;;;;7.43;82.25;99125.69;9733566;28;20095;-72
2020/12/12 22:56:59;;;;;;;30.63;22.92;;;;;;;7.44;82.36;99132.66;9739179;28;22046;-72
2020/12/12 23:02:08;;;;;;;32.83;23.50;;;;;;;7.47;82.31;99140.34;9734184;28;20051;-71
2020/12/12 23:07:10;;;;;;;28.13;22.05;;;;;;;7.43;82.21;99126.53;9723995;28;20813;-71
2020/12/12 23:12:11;;;;;;;35.20;25.85;;;;;;;7.44;82.12;99133.50;9751702;28;20056;-72
2020/12/12 23:17:12;;;;;;;33.17;24.27;;;;;;;7.47;81.93;99136.88;9715346;28;20502;-73
2020/12/12 23:22:13;;;;;;;32.05;23.65;;;;;;;7.43;82.01;99139.78;9715317;28;20057;-72
2020/12/12 23:27:15;;;;;;;32.05;23.25;;;;;;;7.43;82.30;99133.63;9717834;28;20443;-72
2020/12/12 23:32:16;;;;;;;33.13;23.77;;;;;;;7.41;82.40;99149.66;9737116;28;20532;-73
2020/12/12 23:37:17;;;;;;;29.77;23.23;;;;;;;7.39;82.38;99148.94;9726453;28;20062;-71
2020/12/12 23:42:18;;;;;;;29.67;22.90;;;;;;;7.46;82.24;99154.56;9726628;28;20666;-74
2020/12/12 23:47:20;;;;;;;29.65;22.38;;;;;;;7.47;82.19;99152.75;9735132;28;20106;-71